FDX842 SEGU-SKCL
Flight info
| Callsign | FDX842 |
|---|---|
| Flight time | 0h 58m |
| Altitude | 36000 |
| Route | USOGI1 PAMIS UP533 BOKAN DCT MER DCT ANKAS ANKAS3A |
| Aircraft | MD11/H-SDE1E2E3FGHIJ2J3J4J5M1RWXY/LB1D1 |
Departure
| Time | 2026-04-30 19:59 |
|---|---|
| Airport | José Joaquín de Olmedo International Airport (SEGU) |
Arrival
| Time | 2026-04-30 20:58 |
|---|---|
| Airport | Alfonso Bonilla Aragon International Airport (SKCL) |
| Time | Latitude | Longitude | Altitude | Speed | Heading |
|---|---|---|---|---|---|
| 2026-04-30 19:36 | -2.15412 | -79.88368 | 34 ft | 0 kts | 298° |
| 2026-04-30 19:49 | -2.15418 | -79.88357 | 34 ft | 2 kts | 307° |
| 2026-04-30 19:49 | -2.15441 | -79.88339 | 33 ft | 2 kts | 334° |
| 2026-04-30 19:49 | -2.15455 | -79.88333 | 33 ft | 2 kts | 347° |
| 2026-04-30 19:50 | -2.15469 | -79.88332 | 33 ft | 2 kts | 360° |
| 2026-04-30 19:50 | -2.15484 | -79.88332 | 33 ft | 2 kts | 12° |
| 2026-04-30 19:50 | -2.15498 | -79.88337 | 33 ft | 2 kts | 25° |
| 2026-04-30 19:50 | -2.15504 | -79.88340 | 34 ft | 0 kts | 29° |
| 2026-04-30 19:53 | -2.15503 | -79.88340 | 34 ft | 0 kts | 29° |
| 2026-04-30 19:53 | -2.15482 | -79.88327 | 33 ft | 11 kts | 29° |
| 2026-04-30 19:53 | -2.15388 | -79.88274 | 33 ft | 17 kts | 31° |
| 2026-04-30 19:54 | -2.15304 | -79.88226 | 33 ft | 9 kts | 22° |
| 2026-04-30 19:54 | -2.15253 | -79.88238 | 33 ft | 7 kts | 320° |
| 2026-04-30 19:54 | -2.15207 | -79.88247 | 33 ft | 8 kts | 21° |
| 2026-04-30 19:54 | -2.15126 | -79.88202 | 32 ft | 20 kts | 30° |
| 2026-04-30 19:55 | -2.14967 | -79.88111 | 32 ft | 28 kts | 30° |
| 2026-04-30 19:55 | -2.14830 | -79.88032 | 32 ft | 14 kts | 30° |
| 2026-04-30 19:55 | -2.14759 | -79.87991 | 32 ft | 2 kts | 30° |
| 2026-04-30 19:57 | -2.14756 | -79.87989 | 32 ft | 2 kts | 30° |
| 2026-04-30 19:57 | -2.14721 | -79.87968 | 32 ft | 10 kts | 30° |
| 2026-04-30 19:57 | -2.14662 | -79.87911 | 32 ft | 12 kts | 63° |
| 2026-04-30 19:58 | -2.14635 | -79.87824 | 31 ft | 12 kts | 81° |
| 2026-04-30 19:58 | -2.14656 | -79.87762 | 31 ft | 7 kts | 158° |
| 2026-04-30 19:58 | -2.14712 | -79.87775 | 31 ft | 9 kts | 208° |
| 2026-04-30 19:58 | -2.14816 | -79.87835 | 31 ft | 28 kts | 210° |
| 2026-04-30 19:59 | -2.15192 | -79.88051 | 32 ft | 101 kts | 210° |
| 2026-04-30 19:59 | -2.16024 | -79.88528 | 39 ft | 168 kts | 208° |
| 2026-04-30 19:59 | -2.18238 | -79.89812 | 1078 ft | 186 kts | 208° |
| 2026-04-30 20:00 | -2.19385 | -79.90430 | 1667 ft | 199 kts | 208° |
| 2026-04-30 20:00 | -2.20547 | -79.91299 | 1997 ft | 223 kts | 234° |
| 2026-04-30 20:00 | -2.21134 | -79.92763 | 2667 ft | 230 kts | 268° |
| 2026-04-30 20:00 | -2.20854 | -79.94319 | 3442 ft | 237 kts | 297° |
| 2026-04-30 20:01 | -2.18085 | -79.96303 | 4768 ft | 270 kts | 354° |
| 2026-04-30 20:01 | -2.16213 | -79.96123 | 5643 ft | 278 kts | 21° |
| 2026-04-30 20:01 | -2.14520 | -79.95187 | 6611 ft | 282 kts | 33° |
| 2026-04-30 20:02 | -2.11017 | -79.93332 | 8555 ft | 292 kts | 23° |
| 2026-04-30 20:02 | -2.09104 | -79.92605 | 9500 ft | 296 kts | 20° |
| 2026-04-30 20:03 | -2.05070 | -79.91252 | 10662 ft | 331 kts | 19° |
| 2026-04-30 20:03 | -2.02757 | -79.90509 | 10851 ft | 361 kts | 19° |
| 2026-04-30 20:03 | -2.00299 | -79.89726 | 11462 ft | 376 kts | 19° |
| 2026-04-30 20:03 | -1.97787 | -79.88906 | 12249 ft | 384 kts | 22° |
| 2026-04-30 20:04 | -1.95387 | -79.87729 | 13070 ft | 389 kts | 34° |
| 2026-04-30 20:04 | -1.93290 | -79.86045 | 13954 ft | 390 kts | 46° |
| 2026-04-30 20:04 | -1.91501 | -79.83993 | 14821 ft | 394 kts | 51° |
| 2026-04-30 20:05 | -1.87973 | -79.79752 | 16479 ft | 401 kts | 51° |
| 2026-04-30 20:05 | -1.86163 | -79.77632 | 17266 ft | 405 kts | 50° |
| 2026-04-30 20:05 | -1.82462 | -79.73341 | 18789 ft | 413 kts | 50° |
| 2026-04-30 20:06 | -1.80573 | -79.71158 | 19458 ft | 418 kts | 50° |
| 2026-04-30 20:06 | -1.78659 | -79.68948 | 20198 ft | 421 kts | 50° |
| 2026-04-30 20:06 | -1.76734 | -79.66727 | 20838 ft | 426 kts | 50° |
| 2026-04-30 20:06 | -1.74790 | -79.64485 | 21471 ft | 430 kts | 50° |
| 2026-04-30 20:07 | -1.72822 | -79.62215 | 22077 ft | 434 kts | 49° |
| 2026-04-30 20:07 | -1.70845 | -79.59933 | 22689 ft | 439 kts | 49° |
| 2026-04-30 20:07 | -1.66772 | -79.55240 | 23800 ft | 451 kts | 50° |
| 2026-04-30 20:08 | -1.64709 | -79.52862 | 24325 ft | 457 kts | 50° |
| 2026-04-30 20:08 | -1.62614 | -79.50445 | 24835 ft | 463 kts | 50° |
| 2026-04-30 20:08 | -1.60470 | -79.48069 | 25318 ft | 468 kts | 46° |
| 2026-04-30 20:08 | -1.57973 | -79.45888 | 25774 ft | 475 kts | 37° |
| 2026-04-30 20:09 | -1.55199 | -79.44110 | 26279 ft | 479 kts | 31° |
| 2026-04-30 20:09 | -1.52278 | -79.42461 | 26829 ft | 483 kts | 30° |
| 2026-04-30 20:09 | -1.46343 | -79.39088 | 27778 ft | 493 kts | 31° |
| 2026-04-30 20:10 | -1.40335 | -79.35613 | 28652 ft | 504 kts | 31° |
| 2026-04-30 20:10 | -1.37309 | -79.33857 | 29107 ft | 508 kts | 31° |
| 2026-04-30 20:10 | -1.34229 | -79.32068 | 29644 ft | 511 kts | 31° |
| 2026-04-30 20:11 | -1.28056 | -79.28483 | 31018 ft | 509 kts | 30° |
| 2026-04-30 20:11 | -1.25017 | -79.26718 | 31777 ft | 505 kts | 30° |
| 2026-04-30 20:11 | -1.21966 | -79.24947 | 32473 ft | 503 kts | 30° |
| 2026-04-30 20:12 | -1.15923 | -79.21437 | 33824 ft | 498 kts | 30° |
| 2026-04-30 20:12 | -1.12956 | -79.19715 | 34438 ft | 495 kts | 30° |
| 2026-04-30 20:12 | -1.09986 | -79.17990 | 35015 ft | 493 kts | 29° |
| 2026-04-30 20:13 | -1.07018 | -79.16267 | 35528 ft | 491 kts | 29° |
| 2026-04-30 20:13 | -1.04049 | -79.14543 | 36080 ft | 488 kts | 29° |
| 2026-04-30 20:13 | -1.01103 | -79.12834 | 36239 ft | 491 kts | 29° |
| 2026-04-30 20:14 | -0.95180 | -79.09399 | 36284 ft | 489 kts | 29° |
| 2026-04-30 20:14 | -0.89291 | -79.05981 | 36317 ft | 488 kts | 29° |
| 2026-04-30 20:15 | -0.83427 | -79.02576 | 36319 ft | 488 kts | 29° |
| 2026-04-30 20:15 | -0.77591 | -78.99108 | 36350 ft | 489 kts | 32° |
| 2026-04-30 20:16 | -0.71880 | -78.95336 | 36355 ft | 489 kts | 32° |
| 2026-04-30 20:16 | -0.66204 | -78.91616 | 36344 ft | 489 kts | 32° |
| 2026-04-30 20:17 | -0.60479 | -78.87891 | 36318 ft | 489 kts | 31° |
| 2026-04-30 20:17 | -0.54787 | -78.84197 | 36329 ft | 489 kts | 31° |
| 2026-04-30 20:18 | -0.49058 | -78.80478 | 36291 ft | 489 kts | 31° |
| 2026-04-30 20:18 | -0.43344 | -78.76770 | 36296 ft | 490 kts | 31° |
| 2026-04-30 20:19 | -0.37627 | -78.73061 | 36305 ft | 490 kts | 31° |
| 2026-04-30 20:19 | -0.31890 | -78.69337 | 36317 ft | 490 kts | 31° |
| 2026-04-30 20:20 | -0.26185 | -78.65635 | 36290 ft | 490 kts | 31° |
| 2026-04-30 20:20 | -0.20434 | -78.61903 | 36293 ft | 491 kts | 31° |
| 2026-04-30 20:21 | -0.14698 | -78.58181 | 36311 ft | 491 kts | 31° |
| 2026-04-30 20:21 | -0.08970 | -78.54462 | 36338 ft | 491 kts | 31° |
| 2026-04-30 20:22 | -0.03278 | -78.50689 | 36379 ft | 492 kts | 33° |
| 2026-04-30 20:22 | 0.02248 | -78.46635 | 36405 ft | 493 kts | 35° |
| 2026-04-30 20:23 | 0.07729 | -78.42529 | 36384 ft | 492 kts | 34° |
| 2026-04-30 20:23 | 0.13256 | -78.38409 | 36398 ft | 492 kts | 34° |
| 2026-04-30 20:24 | 0.18729 | -78.34332 | 36432 ft | 492 kts | 34° |
| 2026-04-30 20:24 | 0.24232 | -78.30235 | 36407 ft | 492 kts | 34° |
| 2026-04-30 20:25 | 0.32481 | -78.24093 | 36445 ft | 493 kts | 34° |
| 2026-04-30 20:26 | 0.40744 | -78.17942 | 36468 ft | 493 kts | 34° |
| 2026-04-30 20:26 | 0.48968 | -78.11819 | 36450 ft | 492 kts | 34° |
| 2026-04-30 20:27 | 0.59976 | -78.03622 | 36459 ft | 492 kts | 34° |
| 2026-04-30 20:28 | 0.70938 | -77.95459 | 36509 ft | 492 kts | 34° |
| 2026-04-30 20:30 | 0.84666 | -77.85240 | 36428 ft | 492 kts | 34° |
| 2026-04-30 20:31 | 1.01187 | -77.72954 | 36379 ft | 493 kts | 34° |
| 2026-04-30 20:32 | 1.14914 | -77.62743 | 36318 ft | 491 kts | 34° |
| 2026-04-30 20:33 | 1.23165 | -77.56607 | 36239 ft | 493 kts | 34° |
| 2026-04-30 20:34 | 1.31445 | -77.50448 | 36142 ft | 493 kts | 34° |
| 2026-04-30 20:35 | 1.39698 | -77.44312 | 36118 ft | 495 kts | 34° |
| 2026-04-30 20:35 | 1.48005 | -77.38135 | 36110 ft | 494 kts | 34° |
| 2026-04-30 20:36 | 1.53523 | -77.34029 | 36108 ft | 493 kts | 34° |
| 2026-04-30 20:37 | 1.61775 | -77.27887 | 36085 ft | 493 kts | 34° |
| 2026-04-30 20:37 | 1.67315 | -77.23764 | 36051 ft | 494 kts | 34° |
| 2026-04-30 20:38 | 1.72804 | -77.19681 | 36047 ft | 494 kts | 34° |
| 2026-04-30 20:38 | 1.78461 | -77.15676 | 36071 ft | 493 kts | 29° |
| 2026-04-30 20:39 | 1.87628 | -77.11079 | 36005 ft | 491 kts | 22° |
| 2026-04-30 20:40 | 1.96975 | -77.06781 | 35981 ft | 491 kts | 22° |
| 2026-04-30 20:40 | 2.03178 | -77.03910 | 35594 ft | 492 kts | 22° |
| 2026-04-30 20:41 | 2.09383 | -77.01047 | 33893 ft | 494 kts | 23° |
| 2026-04-30 20:41 | 2.12546 | -76.99585 | 33033 ft | 496 kts | 24° |
| 2026-04-30 20:41 | 2.15688 | -76.98132 | 32215 ft | 498 kts | 24° |
| 2026-04-30 20:41 | 2.18815 | -76.96682 | 31413 ft | 502 kts | 24° |
| 2026-04-30 20:42 | 2.21993 | -76.95210 | 30573 ft | 504 kts | 24° |
| 2026-04-30 20:42 | 2.25173 | -76.93739 | 29722 ft | 507 kts | 25° |
| 2026-04-30 20:42 | 2.31614 | -76.90758 | 28068 ft | 511 kts | 25° |
| 2026-04-30 20:43 | 2.34841 | -76.89265 | 27240 ft | 512 kts | 25° |
| 2026-04-30 20:43 | 2.38062 | -76.87772 | 26418 ft | 513 kts | 26° |
| 2026-04-30 20:43 | 2.41334 | -76.86259 | 25593 ft | 512 kts | 26° |
| 2026-04-30 20:44 | 2.47637 | -76.83142 | 24241 ft | 497 kts | 29° |
| 2026-04-30 20:44 | 2.50654 | -76.81527 | 23514 ft | 491 kts | 30° |
| 2026-04-30 20:44 | 2.56581 | -76.78335 | 22064 ft | 477 kts | 30° |
| 2026-04-30 20:45 | 2.62357 | -76.75230 | 20037 ft | 465 kts | 30° |
| 2026-04-30 20:45 | 2.65195 | -76.73706 | 18922 ft | 454 kts | 30° |
| 2026-04-30 20:45 | 2.67940 | -76.72234 | 18269 ft | 448 kts | 30° |
| 2026-04-30 20:46 | 2.76048 | -76.67886 | 16234 ft | 433 kts | 30° |
| 2026-04-30 20:46 | 2.78706 | -76.66462 | 15605 ft | 429 kts | 30° |
| 2026-04-30 20:47 | 2.83914 | -76.63670 | 14378 ft | 422 kts | 30° |
| 2026-04-30 20:47 | 2.86513 | -76.62279 | 13808 ft | 419 kts | 29° |
| 2026-04-30 20:48 | 2.91615 | -76.59544 | 12711 ft | 412 kts | 29° |
| 2026-04-30 20:48 | 2.94119 | -76.58202 | 12193 ft | 409 kts | 29° |
| 2026-04-30 20:48 | 2.96589 | -76.56879 | 11735 ft | 389 kts | 29° |
| 2026-04-30 20:48 | 2.98904 | -76.55641 | 11402 ft | 362 kts | 29° |
| 2026-04-30 20:49 | 3.01046 | -76.54493 | 11097 ft | 339 kts | 29° |
| 2026-04-30 20:49 | 3.03052 | -76.53419 | 10817 ft | 319 kts | 29° |
| 2026-04-30 20:49 | 3.04984 | -76.52383 | 10498 ft | 302 kts | 29° |
| 2026-04-30 20:50 | 3.08576 | -76.50453 | 9583 ft | 297 kts | 29° |
| 2026-04-30 20:50 | 3.10378 | -76.49482 | 9262 ft | 281 kts | 29° |
| 2026-04-30 20:50 | 3.12048 | -76.48582 | 9221 ft | 267 kts | 28° |
| 2026-04-30 20:50 | 3.13631 | -76.47731 | 9215 ft | 245 kts | 29° |
| 2026-04-30 20:51 | 3.15087 | -76.46948 | 9254 ft | 228 kts | 29° |
| 2026-04-30 20:51 | 3.17800 | -76.45486 | 9270 ft | 221 kts | 29° |
| 2026-04-30 20:51 | 3.19155 | -76.44756 | 9248 ft | 221 kts | 29° |
| 2026-04-30 20:52 | 3.20555 | -76.44094 | 9232 ft | 222 kts | 21° |
| 2026-04-30 20:52 | 3.22077 | -76.43688 | 8954 ft | 223 kts | 11° |
| 2026-04-30 20:52 | 3.25116 | -76.43217 | 8402 ft | 218 kts | 10° |
| 2026-04-30 20:53 | 3.26601 | -76.42973 | 8177 ft | 217 kts | 10° |
| 2026-04-30 20:53 | 3.28103 | -76.42718 | 7834 ft | 217 kts | 10° |
| 2026-04-30 20:53 | 3.29587 | -76.42463 | 7488 ft | 215 kts | 10° |
| 2026-04-30 20:54 | 3.32541 | -76.41951 | 6800 ft | 212 kts | 10° |
| 2026-04-30 20:54 | 3.33982 | -76.41702 | 6574 ft | 211 kts | 10° |
| 2026-04-30 20:54 | 3.35443 | -76.41448 | 6308 ft | 211 kts | 10° |
| 2026-04-30 20:55 | 3.38324 | -76.40949 | 5813 ft | 209 kts | 10° |
| 2026-04-30 20:55 | 3.39778 | -76.40698 | 5556 ft | 209 kts | 10° |
| 2026-04-30 20:55 | 3.41164 | -76.40456 | 5317 ft | 196 kts | 10° |
| 2026-04-30 20:56 | 3.43750 | -76.40005 | 4845 ft | 176 kts | 10° |
| 2026-04-30 20:56 | 3.44949 | -76.39799 | 4649 ft | 177 kts | 10° |
| 2026-04-30 20:56 | 3.47410 | -76.39374 | 4186 ft | 179 kts | 9° |
| 2026-04-30 20:57 | 3.48639 | -76.39172 | 3983 ft | 177 kts | 9° |
| 2026-04-30 20:57 | 3.49850 | -76.38972 | 3724 ft | 174 kts | 9° |
| 2026-04-30 20:57 | 3.51045 | -76.38752 | 3533 ft | 177 kts | 9° |
| 2026-04-30 20:58 | 3.53463 | -76.38316 | 3170 ft | 169 kts | 8° |
| 2026-04-30 20:58 | 3.54407 | -76.38153 | 3176 ft | 98 kts | 9° |
| 2026-04-30 20:58 | 3.54871 | -76.38072 | 3181 ft | 43 kts | 9° |
| 2026-04-30 20:58 | 3.55047 | -76.38043 | 3183 ft | 12 kts | 0° |
| 2026-04-30 20:59 | 3.55107 | -76.38152 | 3184 ft | 12 kts | 274° |
| 2026-04-30 20:59 | 3.55048 | -76.38209 | 3183 ft | 14 kts | 192° |
| 2026-04-30 21:00 | 3.54755 | -76.38258 | 3179 ft | 25 kts | 189° |
| 2026-04-30 21:00 | 3.54412 | -76.38318 | 3175 ft | 25 kts | 190° |
| 2026-04-30 21:01 | 3.54141 | -76.38365 | 3173 ft | 9 kts | 192° |
| 2026-04-30 21:01 | 3.54126 | -76.38403 | 3173 ft | 10 kts | 286° |
| 2026-04-30 21:01 | 3.54209 | -76.38546 | 3173 ft | 7 kts | 278° |
| 2026-04-30 21:02 | 3.54197 | -76.38596 | 3173 ft | 12 kts | 263° |
| 2026-04-30 21:02 | 3.54201 | -76.38647 | 3173 ft | 4 kts | 280° |
| 2026-04-30 21:02 | 3.54204 | -76.38663 | 3173 ft | 0 kts | 280° |